GMFF/FEZ METAR and TAF weather

Enter ICAO airport designator
Station Type Date Time Source
GMFF METAR 2022/11/27 09:30 UTC NOAA

GMFF 270930Z VRB02KT CAVOK 21/M07 Q1025 NOSIG


Station Type Date Time Source
GMFF Decoded METAR 2022/11/27 09:30 UTC NOAA

Fes-Sais, Morocco (GMFF) 33-56N 004-59W 579M
Nov 27, 2022 - 04:30 AM EST / 2022.11.27 0930 UTC
Wind: Variable at 2 MPH (2 KT):0
Visibility: greater than 7 mile(s):0
Temperature: 69 F (21 C)
Dew Point: 19 F (-7 C)
Relative Humidity: 14%
Pressure (altimeter): 30.27 in. Hg (1025 hPa)
ob: GMFF 270930Z VRB02KT CAVOK 21/M07 Q1025 NOSIG
cycle: 9

Station Type Date Time Source
GMFF TAF 2022/11/27 06:18 UTC NOAA

TAF TAF GMFF 270500Z 2706/2812 18006KT CAVOK

Example: see airport list